sensor_id;sensor_type;location;lat;lon;timestamp;P1;durP1;ratioP1;P2;durP2;ratioP2
83282;SDS011;73190;50.780;5.658;2023-11-19T00:01:59;1.15;;;0.55;;
83282;SDS011;73190;50.780;5.658;2023-11-19T00:04:26;1.30;;;0.60;;
83282;SDS011;73190;50.780;5.658;2023-11-19T00:06:56;2.07;;;0.60;;
83282;SDS011;73190;50.780;5.658;2023-11-19T00:09:25;1.40;;;0.70;;
83282;SDS011;73190;50.780;5.658;2023-11-19T00:11:52;2.70;;;0.90;;
83282;SDS011;73190;50.780;5.658;2023-11-19T00:14:21;2.83;;;1.12;;
83282;SDS011;73190;50.780;5.658;2023-11-19T00:16:50;3.72;;;1.05;;
83282;SDS011;73190;50.780;5.658;2023-11-19T00:19:17;3.37;;;1.02;;
83282;SDS011;73190;50.780;5.658;2023-11-19T00:21:45;1.85;;;0.95;;
83282;SDS011;73190;50.780;5.658;2023-11-19T00:24:12;3.05;;;1.10;;
83282;SDS011;73190;50.780;5.658;2023-11-19T00:26:42;5.08;;;1.40;;
83282;SDS011;73190;50.780;5.658;2023-11-19T00:29:10;3.15;;;1.30;;
83282;SDS011;73190;50.780;5.658;2023-11-19T00:31:39;4.45;;;1.50;;
83282;SDS011;73190;50.780;5.658;2023-11-19T00:34:06;3.90;;;1.47;;
83282;SDS011;73190;50.780;5.658;2023-11-19T00:36:34;3.60;;;1.32;;
83282;SDS011;73190;50.780;5.658;2023-11-19T00:39:01;3.98;;;1.70;;
83282;SDS011;73190;50.780;5.658;2023-11-19T00:41:29;6.28;;;2.08;;
83282;SDS011;73190;50.780;5.658;2023-11-19T00:43:57;4.90;;;2.08;;
83282;SDS011;73190;50.780;5.658;2023-11-19T00:46:25;4.67;;;1.90;;
83282;SDS011;73190;50.780;5.658;2023-11-19T00:48:53;3.55;;;1.80;;
83282;SDS011;73190;50.780;5.658;2023-11-19T00:51:21;5.50;;;1.85;;
83282;SDS011;73190;50.780;5.658;2023-11-19T00:53:48;4.78;;;1.85;;
83282;SDS011;73190;50.780;5.658;2023-11-19T00:56:16;5.55;;;1.80;;
83282;SDS011;73190;50.780;5.658;2023-11-19T00:58:43;5.15;;;1.70;;
83282;SDS011;73190;50.780;5.658;2023-11-19T01:01:12;6.70;;;1.90;;
83282;SDS011;73190;50.780;5.658;2023-11-19T01:03:40;8.55;;;1.90;;
83282;SDS011;73190;50.780;5.658;2023-11-19T01:06:07;4.65;;;2.00;;
83282;SDS011;73190;50.780;5.658;2023-11-19T01:08:35;5.08;;;1.87;;
83282;SDS011;73190;50.780;5.658;2023-11-19T01:11:03;6.97;;;1.85;;
83282;SDS011;73190;50.780;5.658;2023-11-19T01:13:31;8.25;;;2.33;;
83282;SDS011;73190;50.780;5.658;2023-11-19T01:15:58;7.70;;;2.50;;
83282;SDS011;73190;50.780;5.658;2023-11-19T01:18:28;8.88;;;2.35;;
83282;SDS011;73190;50.780;5.658;2023-11-19T01:20:55;8.98;;;2.10;;
83282;SDS011;73190;50.780;5.658;2023-11-19T01:23:22;7.67;;;1.98;;
83282;SDS011;73190;50.780;5.658;2023-11-19T01:25:50;7.10;;;2.15;;
83282;SDS011;73190;50.780;5.658;2023-11-19T01:28:17;10.13;;;2.08;;
83282;SDS011;73190;50.780;5.658;2023-11-19T01:30:45;6.65;;;1.80;;
83282;SDS011;73190;50.780;5.658;2023-11-19T01:33:13;7.80;;;2.30;;
83282;SDS011;73190;50.780;5.658;2023-11-19T01:35:40;7.20;;;2.15;;
83282;SDS011;73190;50.780;5.658;2023-11-19T01:38:08;9.60;;;2.35;;
83282;SDS011;73190;50.780;5.658;2023-11-19T01:40:35;7.50;;;2.20;;
83282;SDS011;73190;50.780;5.658;2023-11-19T01:43:03;16.00;;;2.65;;
83282;SDS011;73190;50.780;5.658;2023-11-19T01:45:31;12.37;;;2.33;;
83282;SDS011;73190;50.780;5.658;2023-11-19T01:48:00;9.58;;;2.15;;
83282;SDS011;73190;50.780;5.658;2023-11-19T01:50:30;8.85;;;1.77;;
83282;SDS011;73190;50.780;5.658;2023-11-19T01:52:59;8.43;;;2.02;;
83282;SDS011;73190;50.780;5.658;2023-11-19T01:55:28;14.80;;;2.33;;
83282;SDS011;73190;50.780;5.658;2023-11-19T01:57:55;14.00;;;2.08;;
83282;SDS011;73190;50.780;5.658;2023-11-19T02:00:26;15.15;;;3.05;;
83282;SDS011;73190;50.780;5.658;2023-11-19T02:02:54;16.25;;;2.40;;
83282;SDS011;73190;50.780;5.658;2023-11-19T02:05:22;17.07;;;2.55;;
83282;SDS011;73190;50.780;5.658;2023-11-19T02:07:49;13.30;;;2.60;;
83282;SDS011;73190;50.780;5.658;2023-11-19T02:10:17;9.60;;;1.90;;
83282;SDS011;73190;50.780;5.658;2023-11-19T02:12:45;19.12;;;3.20;;
83282;SDS011;73190;50.780;5.658;2023-11-19T02:15:13;18.00;;;2.35;;
83282;SDS011;73190;50.780;5.658;2023-11-19T02:17:40;19.48;;;2.50;;
83282;SDS011;73190;50.780;5.658;2023-11-19T02:20:09;10.82;;;2.45;;
83282;SDS011;73190;50.780;5.658;2023-11-19T02:22:38;18.82;;;2.90;;
83282;SDS011;73190;50.780;5.658;2023-11-19T02:25:12;15.38;;;2.50;;
83282;SDS011;73190;50.780;5.658;2023-11-19T02:30:17;12.80;;;2.72;;
83282;SDS011;73190;50.780;5.658;2023-11-19T02:32:44;16.75;;;2.65;;
83282;SDS011;73190;50.780;5.658;2023-11-19T02:35:14;10.23;;;2.10;;
83282;SDS011;73190;50.780;5.658;2023-11-19T02:37:41;12.70;;;2.47;;
83282;SDS011;73190;50.780;5.658;2023-11-19T02:40:10;13.03;;;3.00;;
83282;SDS011;73190;50.780;5.658;2023-11-19T02:42:39;16.75;;;3.33;;
83282;SDS011;73190;50.780;5.658;2023-11-19T02:45:07;18.00;;;3.08;;
83282;SDS011;73190;50.780;5.658;2023-11-19T02:47:38;11.30;;;2.08;;
83282;SDS011;73190;50.780;5.658;2023-11-19T02:50:05;13.25;;;2.30;;
83282;SDS011;73190;50.780;5.658;2023-11-19T02:52:35;14.43;;;2.52;;
83282;SDS011;73190;50.780;5.658;2023-11-19T02:55:03;16.65;;;2.80;;
83282;SDS011;73190;50.780;5.658;2023-11-19T02:57:32;17.23;;;3.22;;
83282;SDS011;73190;50.780;5.658;2023-11-19T03:00:00;16.75;;;2.27;;
83282;SDS011;73190;50.780;5.658;2023-11-19T03:02:29;18.23;;;3.02;;
83282;SDS011;73190;50.780;5.658;2023-11-19T03:04:58;17.97;;;3.03;;
83282;SDS011;73190;50.780;5.658;2023-11-19T03:07:27;20.05;;;3.42;;
83282;SDS011;73190;50.780;5.658;2023-11-19T03:09:54;15.50;;;3.20;;
83282;SDS011;73190;50.780;5.658;2023-11-19T03:12:22;20.02;;;3.45;;
83282;SDS011;73190;50.780;5.658;2023-11-19T03:14:49;19.50;;;3.55;;
83282;SDS011;73190;50.780;5.658;2023-11-19T03:17:17;25.60;;;3.72;;
83282;SDS011;73190;50.780;5.658;2023-11-19T03:19:44;20.32;;;3.30;;
83282;SDS011;73190;50.780;5.658;2023-11-19T03:22:12;16.97;;;3.42;;
83282;SDS011;73190;50.780;5.658;2023-11-19T03:24:40;17.27;;;3.33;;
83282;SDS011;73190;50.780;5.658;2023-11-19T03:27:07;17.37;;;3.05;;
83282;SDS011;73190;50.780;5.658;2023-11-19T03:29:35;23.38;;;3.10;;
83282;SDS011;73190;50.780;5.658;2023-11-19T03:32:04;15.85;;;2.87;;
83282;SDS011;73190;50.780;5.658;2023-11-19T03:34:32;20.37;;;3.40;;
83282;SDS011;73190;50.780;5.658;2023-11-19T03:37:00;14.05;;;3.15;;
83282;SDS011;73190;50.780;5.658;2023-11-19T03:39:28;19.02;;;4.22;;
83282;SDS011;73190;50.780;5.658;2023-11-19T03:41:56;18.90;;;2.95;;
83282;SDS011;73190;50.780;5.658;2023-11-19T03:44:25;20.48;;;3.00;;
83282;SDS011;73190;50.780;5.658;2023-11-19T03:49:20;21.15;;;2.83;;
83282;SDS011;73190;50.780;5.658;2023-11-19T03:51:49;23.22;;;3.80;;
83282;SDS011;73190;50.780;5.658;2023-11-19T03:54:17;21.33;;;2.80;;
83282;SDS011;73190;50.780;5.658;2023-11-19T03:56:44;15.40;;;2.67;;
83282;SDS011;73190;50.780;5.658;2023-11-19T03:59:12;16.80;;;3.08;;
83282;SDS011;73190;50.780;5.658;2023-11-19T04:01:41;21.48;;;2.92;;
83282;SDS011;73190;50.780;5.658;2023-11-19T04:04:08;22.17;;;2.60;;
83282;SDS011;73190;50.780;5.658;2023-11-19T04:06:36;29.52;;;3.77;;
83282;SDS011;73190;50.780;5.658;2023-11-19T04:09:03;24.55;;;3.60;;
83282;SDS011;73190;50.780;5.658;2023-11-19T04:11:31;25.85;;;3.80;;
83282;SDS011;73190;50.780;5.658;2023-11-19T04:13:59;19.05;;;3.05;;
83282;SDS011;73190;50.780;5.658;2023-11-19T04:16:27;17.87;;;3.08;;
83282;SDS011;73190;50.780;5.658;2023-11-19T04:18:54;27.30;;;4.00;;
83282;SDS011;73190;50.780;5.658;2023-11-19T04:21:22;21.30;;;3.70;;
83282;SDS011;73190;50.780;5.658;2023-11-19T04:23:49;18.67;;;3.02;;
83282;SDS011;73190;50.780;5.658;2023-11-19T04:26:17;20.50;;;3.70;;
83282;SDS011;73190;50.780;5.658;2023-11-19T04:28:44;15.95;;;3.25;;
83282;SDS011;73190;50.780;5.658;2023-11-19T04:31:12;20.08;;;3.25;;
83282;SDS011;73190;50.780;5.658;2023-11-19T04:33:40;25.85;;;4.03;;
83282;SDS011;73190;50.780;5.658;2023-11-19T04:36:07;16.27;;;2.90;;
83282;SDS011;73190;50.780;5.658;2023-11-19T04:38:35;17.55;;;2.87;;
83282;SDS011;73190;50.780;5.658;2023-11-19T04:41:04;19.62;;;3.08;;
83282;SDS011;73190;50.780;5.658;2023-11-19T04:43:32;21.87;;;2.72;;
83282;SDS011;73190;50.780;5.658;2023-11-19T04:46:00;21.80;;;3.70;;
83282;SDS011;73190;50.780;5.658;2023-11-19T04:48:29;22.17;;;3.10;;
83282;SDS011;73190;50.780;5.658;2023-11-19T04:50:56;21.20;;;3.65;;
83282;SDS011;73190;50.780;5.658;2023-11-19T04:53:24;16.12;;;2.67;;
83282;SDS011;73190;50.780;5.658;2023-11-19T04:55:51;18.48;;;3.55;;
83282;SDS011;73190;50.780;5.658;2023-11-19T04:58:19;19.95;;;2.60;;
83282;SDS011;73190;50.780;5.658;2023-11-19T05:00:46;22.45;;;3.08;;
83282;SDS011;73190;50.780;5.658;2023-11-19T05:03:14;21.90;;;3.62;;
83282;SDS011;73190;50.780;5.658;2023-11-19T05:05:41;25.20;;;3.33;;
83282;SDS011;73190;50.780;5.658;2023-11-19T05:08:09;25.52;;;3.45;;
83282;SDS011;73190;50.780;5.658;2023-11-19T05:10:37;21.30;;;4.03;;
83282;SDS011;73190;50.780;5.658;2023-11-19T05:13:04;16.50;;;2.50;;
83282;SDS011;73190;50.780;5.658;2023-11-19T05:15:32;29.12;;;3.62;;
83282;SDS011;73190;50.780;5.658;2023-11-19T05:17:59;20.48;;;3.00;;
83282;SDS011;73190;50.780;5.658;2023-11-19T05:20:27;27.20;;;3.65;;
83282;SDS011;73190;50.780;5.658;2023-11-19T05:22:54;21.97;;;3.65;;
83282;SDS011;73190;50.780;5.658;2023-11-19T05:25:22;24.10;;;3.90;;
83282;SDS011;73190;50.780;5.658;2023-11-19T05:27:50;22.15;;;3.35;;
83282;SDS011;73190;50.780;5.658;2023-11-19T05:30:18;21.77;;;3.40;;
83282;SDS011;73190;50.780;5.658;2023-11-19T05:32:45;21.30;;;3.12;;
83282;SDS011;73190;50.780;5.658;2023-11-19T05:35:13;19.82;;;3.30;;
83282;SDS011;73190;50.780;5.658;2023-11-19T05:37:41;24.65;;;4.87;;
83282;SDS011;73190;50.780;5.658;2023-11-19T05:40:08;20.02;;;3.58;;
83282;SDS011;73190;50.780;5.658;2023-11-19T05:42:38;21.82;;;3.10;;
83282;SDS011;73190;50.780;5.658;2023-11-19T05:45:05;20.05;;;3.37;;
83282;SDS011;73190;50.780;5.658;2023-11-19T05:47:34;24.27;;;3.47;;
83282;SDS011;73190;50.780;5.658;2023-11-19T05:50:02;31.50;;;3.90;;
83282;SDS011;73190;50.780;5.658;2023-11-19T05:52:31;23.02;;;3.62;;
83282;SDS011;73190;50.780;5.658;2023-11-19T05:55:04;25.85;;;3.58;;
83282;SDS011;73190;50.780;5.658;2023-11-19T05:57:30;17.82;;;3.00;;
83282;SDS011;73190;50.780;5.658;2023-11-19T05:59:59;18.13;;;3.17;;
83282;SDS011;73190;50.780;5.658;2023-11-19T06:02:27;19.70;;;3.05;;
83282;SDS011;73190;50.780;5.658;2023-11-19T06:04:54;21.33;;;3.02;;
83282;SDS011;73190;50.780;5.658;2023-11-19T06:07:22;23.02;;;3.35;;
83282;SDS011;73190;50.780;5.658;2023-11-19T06:09:49;23.90;;;3.42;;
83282;SDS011;73190;50.780;5.658;2023-11-19T06:12:17;22.30;;;3.58;;
83282;SDS011;73190;50.780;5.658;2023-11-19T06:14:45;22.50;;;3.75;;
83282;SDS011;73190;50.780;5.658;2023-11-19T06:17:12;20.05;;;3.92;;
83282;SDS011;73190;50.780;5.658;2023-11-19T06:19:40;22.73;;;3.67;;
83282;SDS011;73190;50.780;5.658;2023-11-19T06:22:07;25.48;;;3.50;;
83282;SDS011;73190;50.780;5.658;2023-11-19T06:24:35;21.00;;;3.50;;
83282;SDS011;73190;50.780;5.658;2023-11-19T06:27:03;28.62;;;4.20;;
83282;SDS011;73190;50.780;5.658;2023-11-19T06:29:31;29.48;;;3.67;;
83282;SDS011;73190;50.780;5.658;2023-11-19T06:31:58;24.18;;;4.08;;
83282;SDS011;73190;50.780;5.658;2023-11-19T06:34:26;30.45;;;4.33;;
83282;SDS011;73190;50.780;5.658;2023-11-19T06:36:53;29.52;;;4.50;;
83282;SDS011;73190;50.780;5.658;2023-11-19T06:39:21;28.98;;;4.45;;
83282;SDS011;73190;50.780;5.658;2023-11-19T06:41:49;29.55;;;4.30;;
83282;SDS011;73190;50.780;5.658;2023-11-19T06:44:16;32.60;;;4.80;;
83282;SDS011;73190;50.780;5.658;2023-11-19T06:46:44;29.32;;;5.00;;
83282;SDS011;73190;50.780;5.658;2023-11-19T06:49:11;26.60;;;4.37;;
83282;SDS011;73190;50.780;5.658;2023-11-19T06:51:46;22.93;;;4.50;;
83282;SDS011;73190;50.780;5.658;2023-11-19T06:54:09;26.75;;;3.72;;
83282;SDS011;73190;50.780;5.658;2023-11-19T06:56:37;21.57;;;3.90;;
83282;SDS011;73190;50.780;5.658;2023-11-19T06:59:04;23.25;;;3.37;;
83282;SDS011;73190;50.780;5.658;2023-11-19T07:01:35;23.62;;;3.85;;
83282;SDS011;73190;50.780;5.658;2023-11-19T07:04:03;23.83;;;3.50;;
83282;SDS011;73190;50.780;5.658;2023-11-19T07:06:33;18.25;;;4.20;;
83282;SDS011;73190;50.780;5.658;2023-11-19T07:09:02;21.33;;;3.42;;
83282;SDS011;73190;50.780;5.658;2023-11-19T07:11:33;25.12;;;3.77;;
83282;SDS011;73190;50.780;5.658;2023-11-19T07:14:01;29.30;;;4.25;;
83282;SDS011;73190;50.780;5.658;2023-11-19T07:16:29;27.00;;;4.22;;
83282;SDS011;73190;50.780;5.658;2023-11-19T07:18:57;29.35;;;4.87;;
83282;SDS011;73190;50.780;5.658;2023-11-19T07:21:25;30.50;;;4.12;;
83282;SDS011;73190;50.780;5.658;2023-11-19T07:23:55;25.08;;;3.87;;
83282;SDS011;73190;50.780;5.658;2023-11-19T07:26:23;25.02;;;4.58;;
83282;SDS011;73190;50.780;5.658;2023-11-19T07:28:50;25.05;;;4.70;;
83282;SDS011;73190;50.780;5.658;2023-11-19T07:31:18;28.92;;;5.72;;
83282;SDS011;73190;50.780;5.658;2023-11-19T07:33:46;27.95;;;5.00;;
83282;SDS011;73190;50.780;5.658;2023-11-19T07:36:13;30.45;;;5.05;;
83282;SDS011;73190;50.780;5.658;2023-11-19T07:38:41;29.80;;;4.33;;
83282;SDS011;73190;50.780;5.658;2023-11-19T07:41:08;25.27;;;5.10;;
83282;SDS011;73190;50.780;5.658;2023-11-19T07:43:39;24.47;;;6.20;;
83282;SDS011;73190;50.780;5.658;2023-11-19T07:46:15;28.98;;;4.87;;
83282;SDS011;73190;50.780;5.658;2023-11-19T07:48:39;23.73;;;4.28;;
83282;SDS011;73190;50.780;5.658;2023-11-19T07:51:08;31.05;;;5.08;;
83282;SDS011;73190;50.780;5.658;2023-11-19T07:53:38;35.90;;;4.60;;
83282;SDS011;73190;50.780;5.658;2023-11-19T07:56:06;31.48;;;4.55;;
83282;SDS011;73190;50.780;5.658;2023-11-19T07:58:34;29.48;;;4.92;;
83282;SDS011;73190;50.780;5.658;2023-11-19T08:01:02;28.15;;;4.20;;
83282;SDS011;73190;50.780;5.658;2023-11-19T08:03:30;23.87;;;3.47;;
83282;SDS011;73190;50.780;5.658;2023-11-19T08:06:00;26.30;;;4.62;;
83282;SDS011;73190;50.780;5.658;2023-11-19T08:08:28;22.87;;;3.62;;
83282;SDS011;73190;50.780;5.658;2023-11-19T08:10:57;23.27;;;3.90;;
83282;SDS011;73190;50.780;5.658;2023-11-19T08:13:25;32.85;;;4.83;;
83282;SDS011;73190;50.780;5.658;2023-11-19T08:15:53;27.30;;;4.87;;
83282;SDS011;73190;50.780;5.658;2023-11-19T08:18:20;29.15;;;4.12;;
83282;SDS011;73190;50.780;5.658;2023-11-19T08:20:48;28.15;;;3.98;;
83282;SDS011;73190;50.780;5.658;2023-11-19T08:23:17;29.07;;;5.00;;
83282;SDS011;73190;50.780;5.658;2023-11-19T08:25:45;26.57;;;3.72;;
83282;SDS011;73190;50.780;5.658;2023-11-19T08:28:12;35.13;;;4.58;;
83282;SDS011;73190;50.780;5.658;2023-11-19T08:30:40;29.15;;;4.78;;
83282;SDS011;73190;50.780;5.658;2023-11-19T08:33:07;27.00;;;4.05;;
83282;SDS011;73190;50.780;5.658;2023-11-19T08:35:35;29.20;;;4.08;;
83282;SDS011;73190;50.780;5.658;2023-11-19T08:38:02;29.42;;;4.53;;
83282;SDS011;73190;50.780;5.658;2023-11-19T08:40:30;31.55;;;3.98;;
83282;SDS011;73190;50.780;5.658;2023-11-19T08:42:57;31.80;;;4.58;;
83282;SDS011;73190;50.780;5.658;2023-11-19T08:45:25;29.02;;;4.28;;
83282;SDS011;73190;50.780;5.658;2023-11-19T08:47:52;27.73;;;4.67;;
83282;SDS011;73190;50.780;5.658;2023-11-19T08:50:20;30.50;;;4.47;;
83282;SDS011;73190;50.780;5.658;2023-11-19T08:52:48;27.25;;;4.60;;
83282;SDS011;73190;50.780;5.658;2023-11-19T08:55:16;36.48;;;4.87;;
83282;SDS011;73190;50.780;5.658;2023-11-19T08:57:43;28.30;;;4.53;;
83282;SDS011;73190;50.780;5.658;2023-11-19T09:00:11;26.80;;;4.40;;
83282;SDS011;73190;50.780;5.658;2023-11-19T09:02:40;22.20;;;3.72;;
83282;SDS011;73190;50.780;5.658;2023-11-19T09:05:08;29.30;;;4.30;;
83282;SDS011;73190;50.780;5.658;2023-11-19T09:07:36;33.75;;;5.35;;
83282;SDS011;73190;50.780;5.658;2023-11-19T09:10:04;23.62;;;4.42;;
83282;SDS011;73190;50.780;5.658;2023-11-19T09:12:31;32.65;;;5.00;;
83282;SDS011;73190;50.780;5.658;2023-11-19T09:14:59;29.75;;;5.03;;
83282;SDS011;73190;50.780;5.658;2023-11-19T09:17:26;28.20;;;4.70;;
83282;SDS011;73190;50.780;5.658;2023-11-19T09:19:54;28.20;;;4.83;;
83282;SDS011;73190;50.780;5.658;2023-11-19T09:22:22;24.37;;;3.58;;
83282;SDS011;73190;50.780;5.658;2023-11-19T09:24:50;26.25;;;4.65;;
83282;SDS011;73190;50.780;5.658;2023-11-19T09:27:17;21.00;;;3.95;;
83282;SDS011;73190;50.780;5.658;2023-11-19T09:29:45;26.85;;;4.62;;
83282;SDS011;73190;50.780;5.658;2023-11-19T09:32:14;26.33;;;4.42;;
83282;SDS011;73190;50.780;5.658;2023-11-19T09:34:41;24.07;;;4.25;;
83282;SDS011;73190;50.780;5.658;2023-11-19T09:37:09;24.12;;;3.87;;
83282;SDS011;73190;50.780;5.658;2023-11-19T09:39:36;24.32;;;4.87;;
83282;SDS011;73190;50.780;5.658;2023-11-19T09:42:04;30.45;;;4.78;;
83282;SDS011;73190;50.780;5.658;2023-11-19T09:44:32;26.37;;;4.53;;
83282;SDS011;73190;50.780;5.658;2023-11-19T09:47:00;19.82;;;4.25;;
83282;SDS011;73190;50.780;5.658;2023-11-19T09:49:27;24.07;;;4.58;;
83282;SDS011;73190;50.780;5.658;2023-11-19T09:51:56;21.68;;;3.75;;
83282;SDS011;73190;50.780;5.658;2023-11-19T09:54:24;21.93;;;3.52;;
83282;SDS011;73190;50.780;5.658;2023-11-19T09:56:52;23.55;;;4.05;;
83282;SDS011;73190;50.780;5.658;2023-11-19T09:59:20;23.85;;;4.37;;
83282;SDS011;73190;50.780;5.658;2023-11-19T10:01:47;20.35;;;4.50;;
83282;SDS011;73190;50.780;5.658;2023-11-19T10:04:15;26.10;;;4.50;;
83282;SDS011;73190;50.780;5.658;2023-11-19T10:06:43;27.50;;;4.62;;
83282;SDS011;73190;50.780;5.658;2023-11-19T10:09:11;18.65;;;3.75;;
83282;SDS011;73190;50.780;5.658;2023-11-19T10:11:41;22.48;;;4.12;;
83282;SDS011;73190;50.780;5.658;2023-11-19T10:14:08;23.67;;;4.30;;
83282;SDS011;73190;50.780;5.658;2023-11-19T10:16:36;24.63;;;3.87;;
83282;SDS011;73190;50.780;5.658;2023-11-19T10:19:06;23.12;;;4.05;;
83282;SDS011;73190;50.780;5.658;2023-11-19T10:21:34;22.67;;;3.95;;
83282;SDS011;73190;50.780;5.658;2023-11-19T10:24:02;22.65;;;3.62;;
83282;SDS011;73190;50.780;5.658;2023-11-19T10:26:31;23.30;;;3.87;;
83282;SDS011;73190;50.780;5.658;2023-11-19T10:28:59;22.30;;;3.10;;
83282;SDS011;73190;50.780;5.658;2023-11-19T10:31:27;17.55;;;3.02;;
83282;SDS011;73190;50.780;5.658;2023-11-19T10:33:55;18.45;;;3.45;;
83282;SDS011;73190;50.780;5.658;2023-11-19T10:36:22;20.20;;;3.55;;
83282;SDS011;73190;50.780;5.658;2023-11-19T10:38:52;18.92;;;3.70;;
83282;SDS011;73190;50.780;5.658;2023-11-19T10:41:30;23.13;;;4.40;;
83282;SDS011;73190;50.780;5.658;2023-11-19T10:43:59;24.90;;;4.37;;
83282;SDS011;73190;50.780;5.658;2023-11-19T10:46:36;27.20;;;4.65;;
83282;SDS011;73190;50.780;5.658;2023-11-19T10:49:09;23.90;;;4.00;;
83282;SDS011;73190;50.780;5.658;2023-11-19T10:51:44;24.12;;;4.05;;
83282;SDS011;73190;50.780;5.658;2023-11-19T10:54:10;25.02;;;3.70;;
83282;SDS011;73190;50.780;5.658;2023-11-19T10:56:39;16.00;;;3.10;;
83282;SDS011;73190;50.780;5.658;2023-11-19T10:59:09;21.55;;;4.15;;
83282;SDS011;73190;50.780;5.658;2023-11-19T11:01:45;20.65;;;3.72;;
83282;SDS011;73190;50.780;5.658;2023-11-19T11:04:14;16.42;;;3.35;;
83282;SDS011;73190;50.780;5.658;2023-11-19T11:06:43;15.58;;;3.37;;
83282;SDS011;73190;50.780;5.658;2023-11-19T11:09:10;17.87;;;3.05;;
83282;SDS011;73190;50.780;5.658;2023-11-19T11:11:41;21.73;;;4.70;;
83282;SDS011;73190;50.780;5.658;2023-11-19T11:14:11;18.70;;;3.80;;
83282;SDS011;73190;50.780;5.658;2023-11-19T11:16:43;20.92;;;4.53;;
83282;SDS011;73190;50.780;5.658;2023-11-19T11:19:10;19.42;;;4.17;;
83282;SDS011;73190;50.780;5.658;2023-11-19T11:21:39;24.10;;;4.55;;
83282;SDS011;73190;50.780;5.658;2023-11-19T11:26:53;22.70;;;4.83;;
83282;SDS011;73190;50.780;5.658;2023-11-19T11:29:30;20.02;;;4.28;;
83282;SDS011;73190;50.780;5.658;2023-11-19T11:34:58;16.37;;;4.33;;
83282;SDS011;73190;50.780;5.658;2023-11-19T11:37:35;18.98;;;3.62;;
83282;SDS011;73190;50.780;5.658;2023-11-19T11:42:42;16.62;;;3.15;;
83282;SDS011;73190;50.780;5.658;2023-11-19T11:45:10;18.27;;;3.62;;
83282;SDS011;73190;50.780;5.658;2023-11-19T11:50:16;15.65;;;2.90;;
83282;SDS011;73190;50.780;5.658;2023-11-19T11:58:03;16.65;;;3.80;;
83282;SDS011;73190;50.780;5.658;2023-11-19T12:00:37;19.42;;;4.25;;
83282;SDS011;73190;50.780;5.658;2023-11-19T12:03:07;20.23;;;4.12;;
83282;SDS011;73190;50.780;5.658;2023-11-19T12:05:44;13.48;;;3.50;;
83282;SDS011;73190;50.780;5.658;2023-11-19T12:08:14;20.55;;;3.92;;
83282;SDS011;73190;50.780;5.658;2023-11-19T12:10:46;23.20;;;4.28;;
83282;SDS011;73190;50.780;5.658;2023-11-19T12:13:14;15.53;;;3.40;;
83282;SDS011;73190;50.780;5.658;2023-11-19T12:18:28;25.50;;;4.33;;
83282;SDS011;73190;50.780;5.658;2023-11-19T12:20:59;15.75;;;3.72;;
83282;SDS011;73190;50.780;5.658;2023-11-19T12:23:28;24.45;;;4.12;;
83282;SDS011;73190;50.780;5.658;2023-11-19T12:25:57;21.07;;;4.12;;
83282;SDS011;73190;50.780;5.658;2023-11-19T12:28:25;19.98;;;4.42;;
83282;SDS011;73190;50.780;5.658;2023-11-19T12:30:53;24.12;;;4.30;;
83282;SDS011;73190;50.780;5.658;2023-11-19T12:33:31;24.55;;;3.47;;
83282;SDS011;73190;50.780;5.658;2023-11-19T12:35:59;21.52;;;3.90;;
83282;SDS011;73190;50.780;5.658;2023-11-19T12:38:29;18.65;;;3.15;;
83282;SDS011;73190;50.780;5.658;2023-11-19T12:43:33;21.07;;;3.10;;
83282;SDS011;73190;50.780;5.658;2023-11-19T12:46:01;22.07;;;3.95;;
83282;SDS011;73190;50.780;5.658;2023-11-19T12:48:29;24.80;;;3.92;;
83282;SDS011;73190;50.780;5.658;2023-11-19T12:50:57;22.65;;;4.45;;
83282;SDS011;73190;50.780;5.658;2023-11-19T12:53:26;19.77;;;4.20;;
83282;SDS011;73190;50.780;5.658;2023-11-19T12:55:54;22.67;;;3.77;;
83282;SDS011;73190;50.780;5.658;2023-11-19T12:58:32;18.15;;;3.83;;
83282;SDS011;73190;50.780;5.658;2023-11-19T13:01:04;17.52;;;4.33;;
83282;SDS011;73190;50.780;5.658;2023-11-19T13:03:33;16.95;;;4.22;;
83282;SDS011;73190;50.780;5.658;2023-11-19T13:06:09;18.40;;;3.40;;
83282;SDS011;73190;50.780;5.658;2023-11-19T13:08:41;18.80;;;4.47;;
83282;SDS011;73190;50.780;5.658;2023-11-19T13:11:15;15.30;;;3.10;;
83282;SDS011;73190;50.780;5.658;2023-11-19T13:13:57;13.03;;;3.20;;
83282;SDS011;73190;50.780;5.658;2023-11-19T13:16:31;15.80;;;3.00;;
83282;SDS011;73190;50.780;5.658;2023-11-19T13:18:58;11.12;;;2.40;;
83282;SDS011;73190;50.780;5.658;2023-11-19T13:21:26;11.20;;;2.62;;
83282;SDS011;73190;50.780;5.658;2023-11-19T13:23:54;13.40;;;3.17;;
83282;SDS011;73190;50.780;5.658;2023-11-19T13:26:21;19.60;;;3.45;;
83282;SDS011;73190;50.780;5.658;2023-11-19T13:28:49;18.10;;;3.30;;
83282;SDS011;73190;50.780;5.658;2023-11-19T13:31:17;18.32;;;3.25;;
83282;SDS011;73190;50.780;5.658;2023-11-19T13:33:46;18.90;;;4.15;;
83282;SDS011;73190;50.780;5.658;2023-11-19T13:36:14;18.30;;;5.90;;
83282;SDS011;73190;50.780;5.658;2023-11-19T13:38:42;18.67;;;3.58;;
83282;SDS011;73190;50.780;5.658;2023-11-19T13:41:13;16.77;;;2.80;;
83282;SDS011;73190;50.780;5.658;2023-11-19T13:43:41;15.55;;;3.20;;
83282;SDS011;73190;50.780;5.658;2023-11-19T13:46:09;18.70;;;3.35;;
83282;SDS011;73190;50.780;5.658;2023-11-19T13:48:37;19.65;;;3.50;;
83282;SDS011;73190;50.780;5.658;2023-11-19T13:51:05;18.67;;;3.33;;
83282;SDS011;73190;50.780;5.658;2023-11-19T13:53:33;20.10;;;3.60;;
83282;SDS011;73190;50.780;5.658;2023-11-19T13:56:00;22.10;;;4.17;;
83282;SDS011;73190;50.780;5.658;2023-11-19T13:58:28;18.77;;;3.77;;
83282;SDS011;73190;50.780;5.658;2023-11-19T14:00:55;19.45;;;3.02;;
83282;SDS011;73190;50.780;5.658;2023-11-19T14:03:23;21.02;;;3.47;;
83282;SDS011;73190;50.780;5.658;2023-11-19T14:05:51;16.65;;;3.83;;
83282;SDS011;73190;50.780;5.658;2023-11-19T14:08:20;15.40;;;3.20;;
83282;SDS011;73190;50.780;5.658;2023-11-19T14:10:48;18.55;;;4.17;;
83282;SDS011;73190;50.780;5.658;2023-11-19T14:13:15;20.43;;;3.45;;
83282;SDS011;73190;50.780;5.658;2023-11-19T14:15:43;15.53;;;2.60;;
83282;SDS011;73190;50.780;5.658;2023-11-19T14:18:10;26.42;;;4.05;;
83282;SDS011;73190;50.780;5.658;2023-11-19T14:20:38;28.60;;;4.10;;
83282;SDS011;73190;50.780;5.658;2023-11-19T14:23:05;21.52;;;3.40;;
83282;SDS011;73190;50.780;5.658;2023-11-19T14:25:34;22.70;;;4.55;;
83282;SDS011;73190;50.780;5.658;2023-11-19T14:28:02;20.68;;;3.45;;
83282;SDS011;73190;50.780;5.658;2023-11-19T14:30:30;18.20;;;3.40;;
83282;SDS011;73190;50.780;5.658;2023-11-19T14:32:59;22.58;;;4.25;;
83282;SDS011;73190;50.780;5.658;2023-11-19T14:35:28;20.52;;;4.20;;
83282;SDS011;73190;50.780;5.658;2023-11-19T14:37:56;21.50;;;3.95;;
83282;SDS011;73190;50.780;5.658;2023-11-19T14:40:23;21.52;;;3.83;;
83282;SDS011;73190;50.780;5.658;2023-11-19T14:42:51;25.57;;;4.55;;
83282;SDS011;73190;50.780;5.658;2023-11-19T14:45:18;19.15;;;4.85;;
83282;SDS011;73190;50.780;5.658;2023-11-19T14:47:46;24.82;;;3.45;;
83282;SDS011;73190;50.780;5.658;2023-11-19T14:50:13;19.73;;;3.80;;
83282;SDS011;73190;50.780;5.658;2023-11-19T14:52:41;22.77;;;4.10;;
83282;SDS011;73190;50.780;5.658;2023-11-19T14:55:09;25.43;;;3.83;;
83282;SDS011;73190;50.780;5.658;2023-11-19T14:57:37;19.27;;;4.05;;
83282;SDS011;73190;50.780;5.658;2023-11-19T15:00:05;25.72;;;3.60;;
83282;SDS011;73190;50.780;5.658;2023-11-19T15:02:34;17.52;;;3.27;;
83282;SDS011;73190;50.780;5.658;2023-11-19T15:05:03;26.70;;;4.25;;
83282;SDS011;73190;50.780;5.658;2023-11-19T15:07:30;21.15;;;3.75;;
83282;SDS011;73190;50.780;5.658;2023-11-19T15:09:58;20.82;;;3.70;;